sensor_id;sensor_type;location;lat;lon;timestamp;temperature;humidity
9699;DHT22;10089;47.876;8.346;2022-12-13T00:00:40;-9.40;99.90
9699;DHT22;10089;47.876;8.346;2022-12-13T00:03:06;-7.00;99.90
9699;DHT22;10089;47.876;8.346;2022-12-13T00:05:33;-6.90;99.90
9699;DHT22;10089;47.876;8.346;2022-12-13T00:08:00;-7.00;99.90
9699;DHT22;10089;47.876;8.346;2022-12-13T00:10:26;-7.80;99.90
9699;DHT22;10089;47.876;8.346;2022-12-13T00:12:51;-7.70;99.90
9699;DHT22;10089;47.876;8.346;2022-12-13T00:15:17;-7.50;99.90
9699;DHT22;10089;47.876;8.346;2022-12-13T00:17:43;-8.90;99.90
9699;DHT22;10089;47.876;8.346;2022-12-13T00:20:11;-7.30;99.90
9699;DHT22;10089;47.876;8.346;2022-12-13T00:22:37;-7.40;91.70
9699;DHT22;10089;47.876;8.346;2022-12-13T00:25:03;-7.10;99.90
9699;DHT22;10089;47.876;8.346;2022-12-13T00:27:29;-9.70;1.00
9699;DHT22;10089;47.876;8.346;2022-12-13T00:29:55;-7.90;99.90
9699;DHT22;10089;47.876;8.346;2022-12-13T00:32:20;-7.50;1.00
9699;DHT22;10089;47.876;8.346;2022-12-13T00:34:46;-7.90;1.00
9699;DHT22;10089;47.876;8.346;2022-12-13T00:37:12;-8.70;13.50
9699;DHT22;10089;47.876;8.346;2022-12-13T00:39:38;-10.20;5.70
9699;DHT22;10089;47.876;8.346;2022-12-13T00:42:04;-7.80;99.90
9699;DHT22;10089;47.876;8.346;2022-12-13T00:44:30;-10.20;99.90
9699;DHT22;10089;47.876;8.346;2022-12-13T00:46:56;-10.10;99.90
9699;DHT22;10089;47.876;8.346;2022-12-13T00:49:22;-10.30;99.90
9699;DHT22;10089;47.876;8.346;2022-12-13T00:51:48;-8.10;99.90
9699;DHT22;10089;47.876;8.346;2022-12-13T00:54:14;-8.60;99.90
9699;DHT22;10089;47.876;8.346;2022-12-13T00:56:39;-8.50;99.90
9699;DHT22;10089;47.876;8.346;2022-12-13T00:59:05;-7.60;99.90
9699;DHT22;10089;47.876;8.346;2022-12-13T01:01:33;-8.40;99.90
9699;DHT22;10089;47.876;8.346;2022-12-13T01:04:05;-8.40;92.80
9699;DHT22;10089;47.876;8.346;2022-12-13T01:06:40;-10.10;99.90
9699;DHT22;10089;47.876;8.346;2022-12-13T01:09:13;-10.30;71.30
9699;DHT22;10089;47.876;8.346;2022-12-13T01:11:39;-10.30;1.00
9699;DHT22;10089;47.876;8.346;2022-12-13T01:14:05;-10.30;99.90
9699;DHT22;10089;47.876;8.346;2022-12-13T01:16:31;-7.80;99.90
9699;DHT22;10089;47.876;8.346;2022-12-13T01:18:57;-10.30;99.90
9699;DHT22;10089;47.876;8.346;2022-12-13T01:21:23;-8.30;99.90
9699;DHT22;10089;47.876;8.346;2022-12-13T01:23:48;-7.70;99.90
9699;DHT22;10089;47.876;8.346;2022-12-13T01:26:17;-7.60;99.90
9699;DHT22;10089;47.876;8.346;2022-12-13T01:28:43;-8.20;99.90
9699;DHT22;10089;47.876;8.346;2022-12-13T01:31:12;-9.70;99.90
9699;DHT22;10089;47.876;8.346;2022-12-13T01:33:39;-8.40;99.90
9699;DHT22;10089;47.876;8.346;2022-12-13T01:36:09;-8.50;99.90
9699;DHT22;10089;47.876;8.346;2022-12-13T01:38:35;-9.70;99.90
9699;DHT22;10089;47.876;8.346;2022-12-13T01:41:01;-8.00;99.90
9699;DHT22;10089;47.876;8.346;2022-12-13T01:43:28;-10.40;99.90
9699;DHT22;10089;47.876;8.346;2022-12-13T01:45:54;-8.30;1.00
9699;DHT22;10089;47.876;8.346;2022-12-13T01:48:25;-9.60;99.90
9699;DHT22;10089;47.876;8.346;2022-12-13T01:50:53;-7.70;99.90
9699;DHT22;10089;47.876;8.346;2022-12-13T01:53:26;-10.20;1.00
9699;DHT22;10089;47.876;8.346;2022-12-13T01:56:00;-10.40;99.90
9699;DHT22;10089;47.876;8.346;2022-12-13T01:58:27;-10.20;99.90
9699;DHT22;10089;47.876;8.346;2022-12-13T02:00:53;-10.10;1.00
9699;DHT22;10089;47.876;8.346;2022-12-13T02:03:20;-9.70;1.00
9699;DHT22;10089;47.876;8.346;2022-12-13T02:05:57;-8.10;1.00
9699;DHT22;10089;47.876;8.346;2022-12-13T02:08:24;-7.80;1.00
9699;DHT22;10089;47.876;8.346;2022-12-13T02:10:51;-8.50;1.00
9699;DHT22;10089;47.876;8.346;2022-12-13T02:13:17;-9.60;1.00
9699;DHT22;10089;47.876;8.346;2022-12-13T02:18:56;-10.20;99.90
9699;DHT22;10089;47.876;8.346;2022-12-13T02:35:04;-10.10;99.90
9699;DHT22;10089;47.876;8.346;2022-12-13T02:37:51;-9.60;99.90
9699;DHT22;10089;47.876;8.346;2022-12-13T02:40:29;-10.00;99.90
9699;DHT22;10089;47.876;8.346;2022-12-13T02:46:07;-9.80;99.90
9699;DHT22;10089;47.876;8.346;2022-12-13T02:48:37;-10.00;99.90
9699;DHT22;10089;47.876;8.346;2022-12-13T02:51:04;-10.20;99.90
9699;DHT22;10089;47.876;8.346;2022-12-13T02:53:32;-10.20;35.70
9699;DHT22;10089;47.876;8.346;2022-12-13T02:55:59;-7.70;99.90
9699;DHT22;10089;47.876;8.346;2022-12-13T02:58:32;-10.20;99.90
9699;DHT22;10089;47.876;8.346;2022-12-13T03:06:51;-10.00;99.90
9699;DHT22;10089;47.876;8.346;2022-12-13T03:09:28;-9.90;99.90
9699;DHT22;10089;47.876;8.346;2022-12-13T03:12:22;-10.00;99.90
9699;DHT22;10089;47.876;8.346;2022-12-13T03:15:21;-9.70;99.90
9699;DHT22;10089;47.876;8.346;2022-12-13T03:17:59;-9.10;99.90
9699;DHT22;10089;47.876;8.346;2022-12-13T03:20:27;-7.70;99.90
9699;DHT22;10089;47.876;8.346;2022-12-13T03:22:54;-9.80;22.30
9699;DHT22;10089;47.876;8.346;2022-12-13T03:25:25;-9.80;1.00
9699;DHT22;10089;47.876;8.346;2022-12-13T03:27:51;-9.70;1.00
9699;DHT22;10089;47.876;8.346;2022-12-13T03:30:17;-10.00;1.00
9699;DHT22;10089;47.876;8.346;2022-12-13T03:32:43;-9.70;1.00
9699;DHT22;10089;47.876;8.346;2022-12-13T03:35:09;-10.00;1.00
9699;DHT22;10089;47.876;8.346;2022-12-13T03:37:35;-10.10;1.00
9699;DHT22;10089;47.876;8.346;2022-12-13T03:40:00;-10.30;1.00
9699;DHT22;10089;47.876;8.346;2022-12-13T03:42:27;-10.20;1.00
9699;DHT22;10089;47.876;8.346;2022-12-13T03:44:53;-10.00;1.00
9699;DHT22;10089;47.876;8.346;2022-12-13T03:47:19;-10.20;1.00
9699;DHT22;10089;47.876;8.346;2022-12-13T03:49:45;-10.10;1.00
9699;DHT22;10089;47.876;8.346;2022-12-13T03:52:10;-10.00;1.00
9699;DHT22;10089;47.876;8.346;2022-12-13T03:54:36;-10.10;99.90
9699;DHT22;10089;47.876;8.346;2022-12-13T03:57:02;-10.10;1.00
9699;DHT22;10089;47.876;8.346;2022-12-13T03:59:28;-10.10;1.00
9699;DHT22;10089;47.876;8.346;2022-12-13T04:01:53;-10.20;1.00
9699;DHT22;10089;47.876;8.346;2022-12-13T04:04:19;-10.20;1.00
9699;DHT22;10089;47.876;8.346;2022-12-13T04:06:45;-10.00;1.00
9699;DHT22;10089;47.876;8.346;2022-12-13T04:09:11;-10.20;1.00
9699;DHT22;10089;47.876;8.346;2022-12-13T04:11:36;-10.20;1.00
9699;DHT22;10089;47.876;8.346;2022-12-13T04:14:20;-10.30;1.00
9699;DHT22;10089;47.876;8.346;2022-12-13T04:16:46;-10.30;1.00
9699;DHT22;10089;47.876;8.346;2022-12-13T04:19:12;-10.10;1.00
9699;DHT22;10089;47.876;8.346;2022-12-13T04:21:38;-8.10;1.00
9699;DHT22;10089;47.876;8.346;2022-12-13T04:24:03;-10.20;1.00
9699;DHT22;10089;47.876;8.346;2022-12-13T04:26:29;-10.20;1.00
9699;DHT22;10089;47.876;8.346;2022-12-13T04:28:55;-10.40;1.00
9699;DHT22;10089;47.876;8.346;2022-12-13T04:31:21;-10.40;1.00
9699;DHT22;10089;47.876;8.346;2022-12-13T04:33:47;-10.40;1.00
9699;DHT22;10089;47.876;8.346;2022-12-13T04:36:13;-10.60;1.00
9699;DHT22;10089;47.876;8.346;2022-12-13T04:38:45;-10.40;1.00
9699;DHT22;10089;47.876;8.346;2022-12-13T04:41:16;-10.50;1.00
9699;DHT22;10089;47.876;8.346;2022-12-13T04:43:42;-10.70;66.70
9699;DHT22;10089;47.876;8.346;2022-12-13T04:46:08;-10.50;99.90
9699;DHT22;10089;47.876;8.346;2022-12-13T04:48:34;-10.30;99.90
9699;DHT22;10089;47.876;8.346;2022-12-13T04:51:00;-10.40;1.00
9699;DHT22;10089;47.876;8.346;2022-12-13T04:53:27;-8.40;88.80
9699;DHT22;10089;47.876;8.346;2022-12-13T04:55:53;-9.70;99.90
9699;DHT22;10089;47.876;8.346;2022-12-13T04:58:18;-10.30;1.00
9699;DHT22;10089;47.876;8.346;2022-12-13T05:00:44;-10.50;1.00
9699;DHT22;10089;47.876;8.346;2022-12-13T05:03:10;-10.60;19.60
9699;DHT22;10089;47.876;8.346;2022-12-13T05:05:39;-10.60;93.80
9699;DHT22;10089;47.876;8.346;2022-12-13T05:08:06;-10.40;99.90
9699;DHT22;10089;47.876;8.346;2022-12-13T05:10:32;-10.60;99.90
9699;DHT22;10089;47.876;8.346;2022-12-13T05:13:00;-10.50;99.90
9699;DHT22;10089;47.876;8.346;2022-12-13T05:15:26;-10.30;11.20
9699;DHT22;10089;47.876;8.346;2022-12-13T05:17:52;-8.80;79.80
9699;DHT22;10089;47.876;8.346;2022-12-13T05:20:17;-10.30;93.10
9699;DHT22;10089;47.876;8.346;2022-12-13T05:22:43;-10.60;31.50
9699;DHT22;10089;47.876;8.346;2022-12-13T05:25:09;-8.10;99.90
9699;DHT22;10089;47.876;8.346;2022-12-13T05:27:35;-10.50;99.90
9699;DHT22;10089;47.876;8.346;2022-12-13T05:30:01;-10.50;99.90
9699;DHT22;10089;47.876;8.346;2022-12-13T05:32:27;-10.20;99.90
9699;DHT22;10089;47.876;8.346;2022-12-13T05:34:52;-10.10;1.00
9699;DHT22;10089;47.876;8.346;2022-12-13T05:37:18;-10.30;1.00
9699;DHT22;10089;47.876;8.346;2022-12-13T05:39:44;-10.30;1.00
9699;DHT22;10089;47.876;8.346;2022-12-13T05:42:09;-10.40;1.00
9699;DHT22;10089;47.876;8.346;2022-12-13T05:44:35;-10.30;1.00
9699;DHT22;10089;47.876;8.346;2022-12-13T05:47:01;-10.50;98.90
9699;DHT22;10089;47.876;8.346;2022-12-13T05:49:27;-10.20;96.80
9699;DHT22;10089;47.876;8.346;2022-12-13T05:51:52;-10.60;99.90
9699;DHT22;10089;47.876;8.346;2022-12-13T05:54:18;-10.10;1.00
9699;DHT22;10089;47.876;8.346;2022-12-13T05:56:44;-10.20;1.00
9699;DHT22;10089;47.876;8.346;2022-12-13T05:59:09;-10.20;47.80
9699;DHT22;10089;47.876;8.346;2022-12-13T06:01:35;-8.80;99.90
9699;DHT22;10089;47.876;8.346;2022-12-13T06:04:01;-10.00;86.50
9699;DHT22;10089;47.876;8.346;2022-12-13T06:06:27;-10.40;1.00
9699;DHT22;10089;47.876;8.346;2022-12-13T06:08:53;-10.00;1.00
9699;DHT22;10089;47.876;8.346;2022-12-13T06:11:18;-10.10;1.00
9699;DHT22;10089;47.876;8.346;2022-12-13T06:13:49;-10.10;56.90
9699;DHT22;10089;47.876;8.346;2022-12-13T06:16:16;-9.70;1.00
9699;DHT22;10089;47.876;8.346;2022-12-13T06:18:41;-10.20;1.00
9699;DHT22;10089;47.876;8.346;2022-12-13T06:21:07;-10.10;1.00
9699;DHT22;10089;47.876;8.346;2022-12-13T06:23:33;-10.50;1.00
9699;DHT22;10089;47.876;8.346;2022-12-13T06:26:04;-10.30;1.00
9699;DHT22;10089;47.876;8.346;2022-12-13T06:28:30;-10.10;1.00
9699;DHT22;10089;47.876;8.346;2022-12-13T06:31:01;-10.30;1.00
9699;DHT22;10089;47.876;8.346;2022-12-13T06:33:27;-7.80;1.00
9699;DHT22;10089;47.876;8.346;2022-12-13T06:35:55;-10.10;1.00
9699;DHT22;10089;47.876;8.346;2022-12-13T06:38:22;-10.20;1.00
9699;DHT22;10089;47.876;8.346;2022-12-13T06:40:48;-10.10;1.00
9699;DHT22;10089;47.876;8.346;2022-12-13T06:43:14;-9.90;1.00
9699;DHT22;10089;47.876;8.346;2022-12-13T06:45:40;-10.10;1.00
9699;DHT22;10089;47.876;8.346;2022-12-13T06:48:05;-9.90;1.00
9699;DHT22;10089;47.876;8.346;2022-12-13T06:50:31;-10.00;1.00
9699;DHT22;10089;47.876;8.346;2022-12-13T06:52:57;-10.00;1.00
9699;DHT22;10089;47.876;8.346;2022-12-13T06:55:22;-10.10;1.00
9699;DHT22;10089;47.876;8.346;2022-12-13T06:57:48;-7.60;27.40
9699;DHT22;10089;47.876;8.346;2022-12-13T07:00:14;-9.90;25.60
9699;DHT22;10089;47.876;8.346;2022-12-13T07:02:40;-9.60;1.00
9699;DHT22;10089;47.876;8.346;2022-12-13T07:05:06;-9.90;1.00
9699;DHT22;10089;47.876;8.346;2022-12-13T07:07:32;-9.50;1.00
9699;DHT22;10089;47.876;8.346;2022-12-13T07:09:57;-9.60;1.00
9699;DHT22;10089;47.876;8.346;2022-12-13T07:12:23;-9.50;1.00
9699;DHT22;10089;47.876;8.346;2022-12-13T07:14:49;-9.70;1.00
9699;DHT22;10089;47.876;8.346;2022-12-13T07:17:15;-9.50;1.00
9699;DHT22;10089;47.876;8.346;2022-12-13T07:19:41;-9.60;1.00
9699;DHT22;10089;47.876;8.346;2022-12-13T07:22:06;-8.40;1.00
9699;DHT22;10089;47.876;8.346;2022-12-13T07:24:35;-9.80;1.00
9699;DHT22;10089;47.876;8.346;2022-12-13T07:27:02;-9.60;1.00
9699;DHT22;10089;47.876;8.346;2022-12-13T07:29:28;-9.40;1.00
9699;DHT22;10089;47.876;8.346;2022-12-13T07:31:54;-7.90;1.00
9699;DHT22;10089;47.876;8.346;2022-12-13T07:34:20;-9.20;1.00
9699;DHT22;10089;47.876;8.346;2022-12-13T07:36:48;-9.10;99.90
9699;DHT22;10089;47.876;8.346;2022-12-13T07:39:14;-9.20;1.00
9699;DHT22;10089;47.876;8.346;2022-12-13T07:41:40;-9.10;1.00
9699;DHT22;10089;47.876;8.346;2022-12-13T07:44:07;-9.10;99.90
9699;DHT22;10089;47.876;8.346;2022-12-13T07:46:32;-8.20;99.90
9699;DHT22;10089;47.876;8.346;2022-12-13T07:48:59;-9.00;99.90
9699;DHT22;10089;47.876;8.346;2022-12-13T07:51:25;-9.20;1.00
9699;DHT22;10089;47.876;8.346;2022-12-13T07:53:51;-6.40;99.90
9699;DHT22;10089;47.876;8.346;2022-12-13T07:56:17;-9.00;99.90
9699;DHT22;10089;47.876;8.346;2022-12-13T07:58:43;-8.70;1.00
9699;DHT22;10089;47.876;8.346;2022-12-13T08:01:10;-8.40;1.00
9699;DHT22;10089;47.876;8.346;2022-12-13T08:03:39;-8.70;1.00
9699;DHT22;10089;47.876;8.346;2022-12-13T08:06:10;-8.60;1.00
9699;DHT22;10089;47.876;8.346;2022-12-13T08:08:37;-8.50;1.00
9699;DHT22;10089;47.876;8.346;2022-12-13T08:11:06;-8.60;1.00
9699;DHT22;10089;47.876;8.346;2022-12-13T08:13:33;-8.30;99.90
9699;DHT22;10089;47.876;8.346;2022-12-13T08:16:00;-6.60;1.00
9699;DHT22;10089;47.876;8.346;2022-12-13T08:18:29;-6.30;99.90
9699;DHT22;10089;47.876;8.346;2022-12-13T08:21:02;-8.40;99.90
9699;DHT22;10089;47.876;8.346;2022-12-13T08:23:30;-6.40;1.00
9699;DHT22;10089;47.876;8.346;2022-12-13T08:25:56;-8.40;1.00
9699;DHT22;10089;47.876;8.346;2022-12-13T08:28:23;-8.40;13.50
9699;DHT22;10089;47.876;8.346;2022-12-13T08:30:49;-6.10;1.00
9699;DHT22;10089;47.876;8.346;2022-12-13T08:33:16;-5.90;99.90
9699;DHT22;10089;47.876;8.346;2022-12-13T08:35:42;-5.90;99.90
9699;DHT22;10089;47.876;8.346;2022-12-13T08:38:08;-5.60;12.40
9699;DHT22;10089;47.876;8.346;2022-12-13T08:40:34;-7.20;43.90
9699;DHT22;10089;47.876;8.346;2022-12-13T08:43:00;-7.10;1.00
9699;DHT22;10089;47.876;8.346;2022-12-13T08:45:26;-5.90;1.00
9699;DHT22;10089;47.876;8.346;2022-12-13T08:47:52;-5.40;1.00
9699;DHT22;10089;47.876;8.346;2022-12-13T08:50:18;-6.30;1.00
9699;DHT22;10089;47.876;8.346;2022-12-13T08:52:44;-5.70;99.90
9699;DHT22;10089;47.876;8.346;2022-12-13T08:55:12;-7.00;1.00
9699;DHT22;10089;47.876;8.346;2022-12-13T08:57:38;-5.00;99.90
9699;DHT22;10089;47.876;8.346;2022-12-13T09:00:05;-4.30;50.50
9699;DHT22;10089;47.876;8.346;2022-12-13T09:02:32;-6.80;1.00
9699;DHT22;10089;47.876;8.346;2022-12-13T09:04:58;-4.50;99.90
9699;DHT22;10089;47.876;8.346;2022-12-13T09:07:23;-6.70;1.00
9699;DHT22;10089;47.876;8.346;2022-12-13T09:09:49;-6.60;1.00
9699;DHT22;10089;47.876;8.346;2022-12-13T09:12:15;-6.20;1.00
9699;DHT22;10089;47.876;8.346;2022-12-13T09:14:41;-6.70;1.00
9699;DHT22;10089;47.876;8.346;2022-12-13T09:17:07;-6.30;1.00
9699;DHT22;10089;47.876;8.346;2022-12-13T09:19:32;-3.70;1.00
9699;DHT22;10089;47.876;8.346;2022-12-13T09:21:58;-4.60;1.00
9699;DHT22;10089;47.876;8.346;2022-12-13T09:24:24;-5.40;1.00
9699;DHT22;10089;47.876;8.346;2022-12-13T09:26:50;-4.00;99.90
9699;DHT22;10089;47.876;8.346;2022-12-13T09:29:16;-3.40;99.90
9699;DHT22;10089;47.876;8.346;2022-12-13T09:31:42;-5.70;99.90
9699;DHT22;10089;47.876;8.346;2022-12-13T09:34:09;-3.80;99.90
9699;DHT22;10089;47.876;8.346;2022-12-13T09:36:35;-4.30;99.90
9699;DHT22;10089;47.876;8.346;2022-12-13T09:39:01;-5.40;99.90
9699;DHT22;10089;47.876;8.346;2022-12-13T09:41:43;-2.50;99.90
9699;DHT22;10089;47.876;8.346;2022-12-13T09:44:29;-5.20;1.00
9699;DHT22;10089;47.876;8.346;2022-12-13T09:46:58;-3.30;1.00
9699;DHT22;10089;47.876;8.346;2022-12-13T09:49:35;-3.50;99.90
9699;DHT22;10089;47.876;8.346;2022-12-13T09:52:05;-3.10;99.90
9699;DHT22;10089;47.876;8.346;2022-12-13T09:54:32;-3.00;1.00
9699;DHT22;10089;47.876;8.346;2022-12-13T09:56:58;-2.60;1.00
9699;DHT22;10089;47.876;8.346;2022-12-13T09:59:32;-2.80;99.90
9699;DHT22;10089;47.876;8.346;2022-12-13T10:02:14;-4.20;1.00
9699;DHT22;10089;47.876;8.346;2022-12-13T10:04:40;-2.70;1.00
9699;DHT22;10089;47.876;8.346;2022-12-13T10:07:17;-2.00;99.90
9699;DHT22;10089;47.876;8.346;2022-12-13T10:09:44;-2.70;99.90
9699;DHT22;10089;47.876;8.346;2022-12-13T10:12:13;-1.20;99.90
9699;DHT22;10089;47.876;8.346;2022-12-13T10:14:45;-0.70;1.00
9699;DHT22;10089;47.876;8.346;2022-12-13T10:17:16;-1.80;99.90
9699;DHT22;10089;47.876;8.346;2022-12-13T10:19:45;-0.80;99.90
9699;DHT22;10089;47.876;8.346;2022-12-13T10:22:16;-3.30;1.00
9699;DHT22;10089;47.876;8.346;2022-12-13T10:24:54;-0.90;99.90
9699;DHT22;10089;47.876;8.346;2022-12-13T10:27:27;-2.80;99.90
9699;DHT22;10089;47.876;8.346;2022-12-13T10:32:29;-1.20;99.90
9699;DHT22;10089;47.876;8.346;2022-12-13T10:34:55;-0.70;99.90
9699;DHT22;10089;47.876;8.346;2022-12-13T10:37:30;-2.60;99.90
9699;DHT22;10089;47.876;8.346;2022-12-13T10:39:57;-3.20;28.60
9699;DHT22;10089;47.876;8.346;2022-12-13T10:42:24;-1.00;99.90
9699;DHT22;10089;47.876;8.346;2022-12-13T10:45:13;-0.70;99.90
9699;DHT22;10089;47.876;8.346;2022-12-13T10:47:42;-2.50;27.90
9699;DHT22;10089;47.876;8.346;2022-12-13T10:50:29;-0.20;1.00
9699;DHT22;10089;47.876;8.346;2022-12-13T10:52:56;-0.50;1.00
9699;DHT22;10089;47.876;8.346;2022-12-13T10:55:29;-1.30;1.00
9699;DHT22;10089;47.876;8.346;2022-12-13T10:58:01;-2.10;1.00
9699;DHT22;10089;47.876;8.346;2022-12-13T11:02:56;-1.80;1.00
9699;DHT22;10089;47.876;8.346;2022-12-13T11:05:25;-1.30;1.00
9699;DHT22;10089;47.876;8.346;2022-12-13T11:07:51;-2.20;1.00
9699;DHT22;10089;47.876;8.346;2022-12-13T11:10:26;-0.40;1.00
9699;DHT22;10089;47.876;8.346;2022-12-13T11:13:03;-2.40;1.00
9699;DHT22;10089;47.876;8.346;2022-12-13T11:15:31;-2.70;1.00
9699;DHT22;10089;47.876;8.346;2022-12-13T11:18:00;-2.00;1.00
9699;DHT22;10089;47.876;8.346;2022-12-13T11:20:30;0.10;1.00
9699;DHT22;10089;47.876;8.346;2022-12-13T11:23:02;-0.90;1.00
9699;DHT22;10089;47.876;8.346;2022-12-13T11:25:39;-0.50;1.00
9699;DHT22;10089;47.876;8.346;2022-12-13T11:30:46;-1.80;1.00
9699;DHT22;10089;47.876;8.346;2022-12-13T11:41:48;-2.70;1.00
9699;DHT22;10089;47.876;8.346;2022-12-13T11:44:21;-2.30;1.00
9699;DHT22;10089;47.876;8.346;2022-12-13T11:46:58;-1.30;1.00
9699;DHT22;10089;47.876;8.346;2022-12-13T11:49:39;-2.80;1.00
9699;DHT22;10089;47.876;8.346;2022-12-13T12:43:40;-1.20;99.90
9699;DHT22;10089;47.876;8.346;2022-12-13T12:49:34;-2.70;1.00
9699;DHT22;10089;47.876;8.346;2022-12-13T12:52:29;-2.50;1.00
9699;DHT22;10089;47.876;8.346;2022-12-13T12:55:29;-2.70;1.00
9699;DHT22;10089;47.876;8.346;2022-12-13T13:01:09;-2.90;1.00
9699;DHT22;10089;47.876;8.346;2022-12-13T13:03:37;-2.80;1.00
9699;DHT22;10089;47.876;8.346;2022-12-13T13:06:26;-1.50;1.00
9699;DHT22;10089;47.876;8.346;2022-12-13T13:09:04;-3.20;1.00
9699;DHT22;10089;47.876;8.346;2022-12-13T13:11:34;-1.40;1.00
9699;DHT22;10089;47.876;8.346;2022-12-13T13:16:52;-3.60;99.90
9699;DHT22;10089;47.876;8.346;2022-12-13T13:21:48;-3.30;99.90
9699;DHT22;10089;47.876;8.346;2022-12-13T13:24:25;-2.60;1.00
9699;DHT22;10089;47.876;8.346;2022-12-13T13:29:41;-2.80;93.80
9699;DHT22;10089;47.876;8.346;2022-12-13T13:34:44;-3.40;1.00
9699;DHT22;10089;47.876;8.346;2022-12-13T13:37:46;-3.30;1.00
9699;DHT22;10089;47.876;8.346;2022-12-13T13:45:58;-2.90;1.00
9699;DHT22;10089;47.876;8.346;2022-12-13T13:48:52;-3.00;1.00
9699;DHT22;10089;47.876;8.346;2022-12-13T13:53:54;-3.20;17.60
9699;DHT22;10089;47.876;8.346;2022-12-13T13:59:33;-2.90;1.00
9699;DHT22;10089;47.876;8.346;2022-12-13T14:15:05;-3.40;1.00
9699;DHT22;10089;47.876;8.346;2022-12-13T14:26:53;-3.40;1.00
9699;DHT22;10089;47.876;8.346;2022-12-13T14:29:01;-3.60;58.40
9699;DHT22;10089;47.876;8.346;2022-12-13T14:31:45;-3.60;99.90
9699;DHT22;10089;47.876;8.346;2022-12-13T14:34:23;-1.20;99.90
9699;DHT22;10089;47.876;8.346;2022-12-13T14:36:59;-3.50;1.00
9699;DHT22;10089;47.876;8.346;2022-12-13T14:39:27;-3.60;86.50
9699;DHT22;10089;47.876;8.346;2022-12-13T14:41:58;-2.50;43.90
9699;DHT22;10089;47.876;8.346;2022-12-13T14:44:32;-1.50;8.20
9699;DHT22;10089;47.876;8.346;2022-12-13T14:47:03;-3.60;84.40
9699;DHT22;10089;47.876;8.346;2022-12-13T14:49:35;-3.30;1.00
9699;DHT22;10089;47.876;8.346;2022-12-13T14:52:14;-3.70;99.90
9699;DHT22;10089;47.876;8.346;2022-12-13T14:54:57;-3.80;1.00
9699;DHT22;10089;47.876;8.346;2022-12-13T14:57:27;-3.80;47.00
9699;DHT22;10089;47.876;8.346;2022-12-13T14:59:55;-1.80;99.90
9699;DHT22;10089;47.876;8.346;2022-12-13T15:02:25;-2.00;99.90
9699;DHT22;10089;47.876;8.346;2022-12-13T15:04:53;-2.60;99.90
9699;DHT22;10089;47.876;8.346;2022-12-13T15:07:39;-4.10;1.00
9699;DHT22;10089;47.876;8.346;2022-12-13T15:10:29;-4.30;99.90
9699;DHT22;10089;47.876;8.346;2022-12-13T15:12:56;-4.10;99.90
9699;DHT22;10089;47.876;8.346;2022-12-13T15:15:31;-3.60;1.00
9699;DHT22;10089;47.876;8.346;2022-12-13T15:20:39;-4.20;1.00
9699;DHT22;10089;47.876;8.346;2022-12-13T15:25:37;-4.50;99.90
9699;DHT22;10089;47.876;8.346;2022-12-13T15:28:04;-4.30;45.70
9699;DHT22;10089;47.876;8.346;2022-12-13T15:30:32;-4.30;1.00
9699;DHT22;10089;47.876;8.346;2022-12-13T15:33:20;-4.30;1.00
9699;DHT22;10089;47.876;8.346;2022-12-13T15:35:48;-2.50;99.90
9699;DHT22;10089;47.876;8.346;2022-12-13T15:38:17;-2.30;99.90
9699;DHT22;10089;47.876;8.346;2022-12-13T15:40:48;-4.30;1.00
9699;DHT22;10089;47.876;8.346;2022-12-13T15:43:16;-4.30;99.90
9699;DHT22;10089;47.876;8.346;2022-12-13T15:45:45;-1.80;99.90
9699;DHT22;10089;47.876;8.346;2022-12-13T15:48:33;-2.90;1.00
9699;DHT22;10089;47.876;8.346;2022-12-13T15:51:10;-4.30;99.90
9699;DHT22;10089;47.876;8.346;2022-12-13T15:53:37;-4.30;1.00
9699;DHT22;10089;47.876;8.346;2022-12-13T15:58:58;-3.60;99.90
9699;DHT22;10089;47.876;8.346;2022-12-13T16:01:30;-4.00;99.90
9699;DHT22;10089;47.876;8.346;2022-12-13T16:03:57;-2.20;1.00
9699;DHT22;10089;47.876;8.346;2022-12-13T16:06:24;-2.60;99.90
9699;DHT22;10089;47.876;8.346;2022-12-13T16:08:57;-3.90;1.00
9699;DHT22;10089;47.876;8.346;2022-12-13T16:11:29;-4.60;1.00
9699;DHT22;10089;47.876;8.346;2022-12-13T16:16:51;-4.40;99.90
9699;DHT22;10089;47.876;8.346;2022-12-13T16:19:18;-4.60;99.90
9699;DHT22;10089;47.876;8.346;2022-12-13T16:21:44;-3.60;99.90
9699;DHT22;10089;47.876;8.346;2022-12-13T16:24:10;-4.60;1.00
9699;DHT22;10089;47.876;8.346;2022-12-13T16:26:36;-4.60;99.90
9699;DHT22;10089;47.876;8.346;2022-12-13T16:29:04;-4.60;99.90
9699;DHT22;10089;47.876;8.346;2022-12-13T16:31:33;-4.80;1.00
9699;DHT22;10089;47.876;8.346;2022-12-13T16:34:03;-4.90;1.00
9699;DHT22;10089;47.876;8.346;2022-12-13T16:36:29;-2.50;1.00
9699;DHT22;10089;47.876;8.346;2022-12-13T16:38:55;-4.60;99.90
9699;DHT22;10089;47.876;8.346;2022-12-13T16:41:21;-2.20;99.90
9699;DHT22;10089;47.876;8.346;2022-12-13T16:46:16;-2.40;1.00
9699;DHT22;10089;47.876;8.346;2022-12-13T16:48:41;-2.60;1.00
9699;DHT22;10089;47.876;8.346;2022-12-13T16:51:07;-5.00;99.90
9699;DHT22;10089;47.876;8.346;2022-12-13T16:53:33;-3.40;40.10
9699;DHT22;10089;47.876;8.346;2022-12-13T16:55:59;-5.20;1.00
9699;DHT22;10089;47.876;8.346;2022-12-13T16:58:25;-5.10;99.90
9699;DHT22;10089;47.876;8.346;2022-12-13T17:00:50;-5.10;1.00
9699;DHT22;10089;47.876;8.346;2022-12-13T17:03:16;-5.20;99.90
9699;DHT22;10089;47.876;8.346;2022-12-13T17:05:43;-5.20;99.90
9699;DHT22;10089;47.876;8.346;2022-12-13T17:08:11;-2.60;1.00
9699;DHT22;10089;47.876;8.346;2022-12-13T17:10:39;-5.30;99.90
9699;DHT22;10089;47.876;8.346;2022-12-13T17:13:05;-2.50;73.90
9699;DHT22;10089;47.876;8.346;2022-12-13T17:15:30;-5.30;1.00
9699;DHT22;10089;47.876;8.346;2022-12-13T17:17:56;-5.30;1.00
9699;DHT22;10089;47.876;8.346;2022-12-13T17:20:22;-5.30;99.90
9699;DHT22;10089;47.876;8.346;2022-12-13T17:22:49;-3.00;1.00
9699;DHT22;10089;47.876;8.346;2022-12-13T17:25:14;-4.60;99.90
9699;DHT22;10089;47.876;8.346;2022-12-13T17:27:40;-3.20;1.00
9699;DHT22;10089;47.876;8.346;2022-12-13T17:30:09;-3.60;99.90
9699;DHT22;10089;47.876;8.346;2022-12-13T17:32:35;-5.00;1.00
9699;DHT22;10089;47.876;8.346;2022-12-13T17:35:02;-4.80;1.00
9699;DHT22;10089;47.876;8.346;2022-12-13T17:37:29;-3.00;1.00
9699;DHT22;10089;47.876;8.346;2022-12-13T17:39:55;-5.20;99.90
9699;DHT22;10089;47.876;8.346;2022-12-13T17:42:20;-2.60;99.90
9699;DHT22;10089;47.876;8.346;2022-12-13T17:44:46;-2.80;1.00
9699;DHT22;10089;47.876;8.346;2022-12-13T17:47:12;-3.00;1.00
9699;DHT22;10089;47.876;8.346;2022-12-13T17:49:38;-4.40;99.90
9699;DHT22;10089;47.876;8.346;2022-12-13T17:52:09;-5.20;99.90
9699;DHT22;10089;47.876;8.346;2022-12-13T17:54:35;-5.40;1.00
9699;DHT22;10089;47.876;8.346;2022-12-13T17:57:01;-5.40;5.90
9699;DHT22;10089;47.876;8.346;2022-12-13T17:59:27;-5.30;99.90
9699;DHT22;10089;47.876;8.346;2022-12-13T18:01:53;-4.20;99.90
9699;DHT22;10089;47.876;8.346;2022-12-13T18:04:19;-3.50;1.00
9699;DHT22;10089;47.876;8.346;2022-12-13T18:06:45;-5.20;1.00
9699;DHT22;10089;47.876;8.346;2022-12-13T18:09:12;-5.20;99.90
9699;DHT22;10089;47.876;8.346;2022-12-13T18:11:38;-5.00;1.00
9699;DHT22;10089;47.876;8.346;2022-12-13T18:14:05;-5.10;1.00
9699;DHT22;10089;47.876;8.346;2022-12-13T18:16:31;-3.30;99.90
9699;DHT22;10089;47.876;8.346;2022-12-13T18:18:57;-3.40;99.90
9699;DHT22;10089;47.876;8.346;2022-12-13T18:21:25;-3.20;99.90
9699;DHT22;10089;47.876;8.346;2022-12-13T18:23:51;-5.40;99.90
9699;DHT22;10089;47.876;8.346;2022-12-13T18:26:18;-5.40;1.00
9699;DHT22;10089;47.876;8.346;2022-12-13T18:28:44;-3.10;1.00
9699;DHT22;10089;47.876;8.346;2022-12-13T18:31:15;-5.10;1.00
9699;DHT22;10089;47.876;8.346;2022-12-13T18:33:42;-3.50;1.00
9699;DHT22;10089;47.876;8.346;2022-12-13T18:36:08;-3.50;1.00